sensor_id;sensor_type;location;lat;lon;timestamp;P1;durP1;ratioP1;P2;durP2;ratioP2
12906;SDS011;6521;50.498;8.474;2023-08-06T00:01:32;5.57;;;3.38;;
12906;SDS011;6521;50.498;8.474;2023-08-06T00:04:03;4.32;;;3.55;;
12906;SDS011;6521;50.498;8.474;2023-08-06T00:06:33;4.70;;;3.40;;
12906;SDS011;6521;50.498;8.474;2023-08-06T00:09:04;4.05;;;3.65;;
12906;SDS011;6521;50.498;8.474;2023-08-06T00:11:35;7.25;;;4.30;;
12906;SDS011;6521;50.498;8.474;2023-08-06T00:14:05;4.40;;;3.97;;
12906;SDS011;6521;50.498;8.474;2023-08-06T00:16:36;5.63;;;3.60;;
12906;SDS011;6521;50.498;8.474;2023-08-06T00:19:09;4.93;;;4.05;;
12906;SDS011;6521;50.498;8.474;2023-08-06T00:21:40;4.63;;;4.10;;
12906;SDS011;6521;50.498;8.474;2023-08-06T00:24:10;4.88;;;4.30;;
12906;SDS011;6521;50.498;8.474;2023-08-06T00:26:41;5.72;;;4.40;;
12906;SDS011;6521;50.498;8.474;2023-08-06T00:29:12;5.00;;;4.47;;
12906;SDS011;6521;50.498;8.474;2023-08-06T00:31:43;5.38;;;4.18;;
12906;SDS011;6521;50.498;8.474;2023-08-06T00:34:13;7.75;;;4.53;;
12906;SDS011;6521;50.498;8.474;2023-08-06T00:36:44;4.80;;;4.40;;
12906;SDS011;6521;50.498;8.474;2023-08-06T00:39:15;8.48;;;4.22;;
12906;SDS011;6521;50.498;8.474;2023-08-06T00:41:45;6.68;;;4.43;;
12906;SDS011;6521;50.498;8.474;2023-08-06T00:44:16;5.93;;;4.32;;
12906;SDS011;6521;50.498;8.474;2023-08-06T00:46:46;5.53;;;3.80;;
12906;SDS011;6521;50.498;8.474;2023-08-06T00:49:18;5.05;;;3.80;;
12906;SDS011;6521;50.498;8.474;2023-08-06T00:51:49;5.80;;;3.75;;
12906;SDS011;6521;50.498;8.474;2023-08-06T00:54:20;4.10;;;3.33;;
12906;SDS011;6521;50.498;8.474;2023-08-06T00:56:51;4.30;;;3.58;;
12906;SDS011;6521;50.498;8.474;2023-08-06T00:59:22;5.40;;;3.30;;
12906;SDS011;6521;50.498;8.474;2023-08-06T01:01:53;5.25;;;3.03;;
12906;SDS011;6521;50.498;8.474;2023-08-06T01:04:25;5.63;;;3.35;;
12906;SDS011;6521;50.498;8.474;2023-08-06T01:10:32;7.35;;;3.15;;
12906;SDS011;6521;50.498;8.474;2023-08-06T01:16:03;4.28;;;3.40;;
12906;SDS011;6521;50.498;8.474;2023-08-06T01:18:36;6.13;;;3.10;;
12906;SDS011;6521;50.498;8.474;2023-08-06T01:21:09;5.50;;;2.88;;
12906;SDS011;6521;50.498;8.474;2023-08-06T01:23:40;5.22;;;3.45;;
12906;SDS011;6521;50.498;8.474;2023-08-06T01:28:57;3.65;;;2.72;;
12906;SDS011;6521;50.498;8.474;2023-08-06T01:31:35;4.05;;;2.92;;
12906;SDS011;6521;50.498;8.474;2023-08-06T01:34:28;5.45;;;3.20;;
12906;SDS011;6521;50.498;8.474;2023-08-06T01:37:01;4.75;;;2.92;;
12906;SDS011;6521;50.498;8.474;2023-08-06T01:39:33;5.40;;;3.30;;
12906;SDS011;6521;50.498;8.474;2023-08-06T01:42:03;4.00;;;3.60;;
12906;SDS011;6521;50.498;8.474;2023-08-06T01:44:34;4.25;;;3.50;;
12906;SDS011;6521;50.498;8.474;2023-08-06T01:47:05;4.68;;;3.50;;
12906;SDS011;6521;50.498;8.474;2023-08-06T01:49:37;8.75;;;3.75;;
12906;SDS011;6521;50.498;8.474;2023-08-06T01:52:09;4.93;;;3.42;;
12906;SDS011;6521;50.498;8.474;2023-08-06T01:54:39;4.18;;;3.33;;
12906;SDS011;6521;50.498;8.474;2023-08-06T01:57:12;3.50;;;3.17;;
12906;SDS011;6521;50.498;8.474;2023-08-06T01:59:43;7.53;;;3.70;;
12906;SDS011;6521;50.498;8.474;2023-08-06T02:02:14;5.25;;;3.05;;
12906;SDS011;6521;50.498;8.474;2023-08-06T02:04:45;4.63;;;3.75;;
12906;SDS011;6521;50.498;8.474;2023-08-06T02:07:17;6.07;;;3.25;;
12906;SDS011;6521;50.498;8.474;2023-08-06T02:09:47;4.63;;;3.15;;
12906;SDS011;6521;50.498;8.474;2023-08-06T02:12:18;5.20;;;3.65;;
12906;SDS011;6521;50.498;8.474;2023-08-06T02:14:49;4.95;;;3.40;;
12906;SDS011;6521;50.498;8.474;2023-08-06T02:17:20;3.83;;;3.40;;
12906;SDS011;6521;50.498;8.474;2023-08-06T02:19:51;4.90;;;3.40;;
12906;SDS011;6521;50.498;8.474;2023-08-06T02:22:22;7.88;;;3.97;;
12906;SDS011;6521;50.498;8.474;2023-08-06T02:24:53;4.50;;;4.07;;
12906;SDS011;6521;50.498;8.474;2023-08-06T02:27:25;5.00;;;4.43;;
12906;SDS011;6521;50.498;8.474;2023-08-06T02:29:56;5.47;;;4.00;;
12906;SDS011;6521;50.498;8.474;2023-08-06T02:32:27;5.20;;;4.80;;
12906;SDS011;6521;50.498;8.474;2023-08-06T02:34:59;5.70;;;4.50;;
12906;SDS011;6521;50.498;8.474;2023-08-06T02:37:32;4.82;;;4.35;;
12906;SDS011;6521;50.498;8.474;2023-08-06T02:40:05;6.32;;;4.72;;
12906;SDS011;6521;50.498;8.474;2023-08-06T02:42:36;6.40;;;4.70;;
12906;SDS011;6521;50.498;8.474;2023-08-06T02:45:06;6.40;;;4.68;;
12906;SDS011;6521;50.498;8.474;2023-08-06T02:47:38;5.95;;;5.18;;
12906;SDS011;6521;50.498;8.474;2023-08-06T02:50:09;7.05;;;4.80;;
12906;SDS011;6521;50.498;8.474;2023-08-06T02:52:41;8.10;;;5.28;;
12906;SDS011;6521;50.498;8.474;2023-08-06T02:55:13;5.63;;;4.85;;
12906;SDS011;6521;50.498;8.474;2023-08-06T02:57:47;5.82;;;5.13;;
12906;SDS011;6521;50.498;8.474;2023-08-06T03:00:18;6.47;;;5.07;;
12906;SDS011;6521;50.498;8.474;2023-08-06T03:02:49;5.97;;;4.22;;
12906;SDS011;6521;50.498;8.474;2023-08-06T03:05:27;5.90;;;4.53;;
12906;SDS011;6521;50.498;8.474;2023-08-06T03:07:58;4.82;;;4.38;;
12906;SDS011;6521;50.498;8.474;2023-08-06T03:10:32;5.97;;;4.63;;
12906;SDS011;6521;50.498;8.474;2023-08-06T03:13:06;5.65;;;5.13;;
12906;SDS011;6521;50.498;8.474;2023-08-06T03:15:37;6.18;;;4.93;;
12906;SDS011;6521;50.498;8.474;2023-08-06T03:18:08;5.00;;;4.50;;
12906;SDS011;6521;50.498;8.474;2023-08-06T03:20:40;7.45;;;5.55;;
12906;SDS011;6521;50.498;8.474;2023-08-06T03:23:11;5.75;;;5.25;;
12906;SDS011;6521;50.498;8.474;2023-08-06T03:25:42;6.68;;;5.40;;
12906;SDS011;6521;50.498;8.474;2023-08-06T03:28:13;7.65;;;5.70;;
12906;SDS011;6521;50.498;8.474;2023-08-06T03:30:46;8.50;;;5.72;;
12906;SDS011;6521;50.498;8.474;2023-08-06T03:33:18;7.03;;;5.60;;
12906;SDS011;6521;50.498;8.474;2023-08-06T03:35:50;6.32;;;5.70;;
12906;SDS011;6521;50.498;8.474;2023-08-06T03:38:21;7.32;;;5.78;;
12906;SDS011;6521;50.498;8.474;2023-08-06T03:40:53;8.07;;;5.80;;
12906;SDS011;6521;50.498;8.474;2023-08-06T03:43:24;6.40;;;5.70;;
12906;SDS011;6521;50.498;8.474;2023-08-06T03:45:55;7.05;;;6.20;;
12906;SDS011;6521;50.498;8.474;2023-08-06T03:48:28;6.03;;;5.53;;
12906;SDS011;6521;50.498;8.474;2023-08-06T03:50:59;7.65;;;5.88;;
12906;SDS011;6521;50.498;8.474;2023-08-06T03:53:32;5.90;;;5.40;;
12906;SDS011;6521;50.498;8.474;2023-08-06T03:56:03;9.60;;;5.68;;
12906;SDS011;6521;50.498;8.474;2023-08-06T03:58:35;7.47;;;5.45;;
12906;SDS011;6521;50.498;8.474;2023-08-06T04:01:06;6.03;;;5.22;;
12906;SDS011;6521;50.498;8.474;2023-08-06T04:03:46;5.38;;;4.88;;
12906;SDS011;6521;50.498;8.474;2023-08-06T04:06:24;5.32;;;4.68;;
12906;SDS011;6521;50.498;8.474;2023-08-06T04:08:57;4.97;;;4.47;;
12906;SDS011;6521;50.498;8.474;2023-08-06T04:11:27;6.50;;;4.40;;
12906;SDS011;6521;50.498;8.474;2023-08-06T04:13:58;7.22;;;4.80;;
12906;SDS011;6521;50.498;8.474;2023-08-06T04:16:29;4.22;;;3.83;;
12906;SDS011;6521;50.498;8.474;2023-08-06T04:19:00;4.60;;;4.18;;
12906;SDS011;6521;50.498;8.474;2023-08-06T04:21:30;7.47;;;4.38;;
12906;SDS011;6521;50.498;8.474;2023-08-06T04:24:01;4.15;;;3.53;;
12906;SDS011;6521;50.498;8.474;2023-08-06T04:26:32;4.68;;;3.58;;
12906;SDS011;6521;50.498;8.474;2023-08-06T04:29:04;5.05;;;4.50;;
12906;SDS011;6521;50.498;8.474;2023-08-06T04:31:35;6.88;;;4.70;;
12906;SDS011;6521;50.498;8.474;2023-08-06T04:34:06;4.72;;;3.90;;
12906;SDS011;6521;50.498;8.474;2023-08-06T04:36:38;7.10;;;4.13;;
12906;SDS011;6521;50.498;8.474;2023-08-06T04:39:12;6.65;;;4.05;;
12906;SDS011;6521;50.498;8.474;2023-08-06T04:41:43;5.82;;;3.63;;
12906;SDS011;6521;50.498;8.474;2023-08-06T04:44:14;6.07;;;3.80;;
12906;SDS011;6521;50.498;8.474;2023-08-06T04:46:45;4.45;;;3.58;;
12906;SDS011;6521;50.498;8.474;2023-08-06T04:49:17;6.60;;;3.47;;
12906;SDS011;6521;50.498;8.474;2023-08-06T04:51:48;6.13;;;3.60;;
12906;SDS011;6521;50.498;8.474;2023-08-06T04:54:18;9.57;;;3.80;;
12906;SDS011;6521;50.498;8.474;2023-08-06T04:56:57;4.57;;;3.53;;
12906;SDS011;6521;50.498;8.474;2023-08-06T04:59:27;4.00;;;3.50;;
12906;SDS011;6521;50.498;8.474;2023-08-06T05:01:59;3.58;;;3.05;;
12906;SDS011;6521;50.498;8.474;2023-08-06T05:04:30;9.15;;;3.05;;
12906;SDS011;6521;50.498;8.474;2023-08-06T05:07:01;9.00;;;3.60;;
12906;SDS011;6521;50.498;8.474;2023-08-06T05:09:32;4.80;;;3.15;;
12906;SDS011;6521;50.498;8.474;2023-08-06T05:12:03;4.53;;;3.28;;
12906;SDS011;6521;50.498;8.474;2023-08-06T05:14:34;6.97;;;3.17;;
12906;SDS011;6521;50.498;8.474;2023-08-06T05:17:06;4.93;;;2.95;;
12906;SDS011;6521;50.498;8.474;2023-08-06T05:19:36;6.88;;;3.10;;
12906;SDS011;6521;50.498;8.474;2023-08-06T05:22:07;5.10;;;3.05;;
12906;SDS011;6521;50.498;8.474;2023-08-06T05:24:38;4.68;;;3.60;;
12906;SDS011;6521;50.498;8.474;2023-08-06T05:27:10;5.63;;;3.00;;
12906;SDS011;6521;50.498;8.474;2023-08-06T05:29:40;5.38;;;2.97;;
12906;SDS011;6521;50.498;8.474;2023-08-06T05:32:11;4.03;;;3.10;;
12906;SDS011;6521;50.498;8.474;2023-08-06T05:34:42;3.15;;;2.50;;
12906;SDS011;6521;50.498;8.474;2023-08-06T05:37:13;3.53;;;2.70;;
12906;SDS011;6521;50.498;8.474;2023-08-06T05:39:43;2.65;;;2.45;;
12906;SDS011;6521;50.498;8.474;2023-08-06T05:42:16;4.03;;;2.60;;
12906;SDS011;6521;50.498;8.474;2023-08-06T05:44:47;9.15;;;3.40;;
12906;SDS011;6521;50.498;8.474;2023-08-06T05:47:18;7.80;;;2.85;;
12906;SDS011;6521;50.498;8.474;2023-08-06T05:49:50;5.43;;;2.88;;
12906;SDS011;6521;50.498;8.474;2023-08-06T05:52:21;4.22;;;2.95;;
12906;SDS011;6521;50.498;8.474;2023-08-06T05:54:51;3.80;;;3.03;;
12906;SDS011;6521;50.498;8.474;2023-08-06T05:57:22;4.38;;;2.83;;
12906;SDS011;6521;50.498;8.474;2023-08-06T05:59:53;3.72;;;2.90;;
12906;SDS011;6521;50.498;8.474;2023-08-06T06:02:23;6.68;;;2.85;;
12906;SDS011;6521;50.498;8.474;2023-08-06T06:04:54;4.13;;;2.22;;
12906;SDS011;6521;50.498;8.474;2023-08-06T06:07:25;3.78;;;2.10;;
12906;SDS011;6521;50.498;8.474;2023-08-06T06:09:56;4.30;;;2.40;;
12906;SDS011;6521;50.498;8.474;2023-08-06T06:12:27;4.95;;;1.95;;
12906;SDS011;6521;50.498;8.474;2023-08-06T06:14:58;4.75;;;2.40;;
12906;SDS011;6521;50.498;8.474;2023-08-06T06:17:28;4.97;;;2.08;;
12906;SDS011;6521;50.498;8.474;2023-08-06T06:19:59;3.55;;;2.42;;
12906;SDS011;6521;50.498;8.474;2023-08-06T06:22:30;3.50;;;2.20;;
12906;SDS011;6521;50.498;8.474;2023-08-06T06:25:01;3.75;;;2.20;;
12906;SDS011;6521;50.498;8.474;2023-08-06T06:27:31;3.60;;;2.58;;
12906;SDS011;6521;50.498;8.474;2023-08-06T06:30:10;2.15;;;2.00;;
12906;SDS011;6521;50.498;8.474;2023-08-06T06:32:42;4.85;;;2.17;;
12906;SDS011;6521;50.498;8.474;2023-08-06T06:35:20;5.85;;;2.60;;
12906;SDS011;6521;50.498;8.474;2023-08-06T06:37:50;3.28;;;2.10;;
12906;SDS011;6521;50.498;8.474;2023-08-06T06:40:21;9.45;;;3.28;;
12906;SDS011;6521;50.498;8.474;2023-08-06T06:42:52;3.60;;;2.13;;
12906;SDS011;6521;50.498;8.474;2023-08-06T06:45:24;2.30;;;2.10;;
12906;SDS011;6521;50.498;8.474;2023-08-06T06:47:55;5.55;;;2.42;;
12906;SDS011;6521;50.498;8.474;2023-08-06T06:50:27;6.93;;;2.60;;
12906;SDS011;6521;50.498;8.474;2023-08-06T06:52:58;4.65;;;2.33;;
12906;SDS011;6521;50.498;8.474;2023-08-06T06:55:31;5.63;;;2.40;;
12906;SDS011;6521;50.498;8.474;2023-08-06T06:58:02;9.98;;;3.00;;
12906;SDS011;6521;50.498;8.474;2023-08-06T07:00:36;4.63;;;2.38;;
12906;SDS011;6521;50.498;8.474;2023-08-06T07:03:10;2.42;;;2.00;;
12906;SDS011;6521;50.498;8.474;2023-08-06T07:05:43;2.42;;;2.08;;
12906;SDS011;6521;50.498;8.474;2023-08-06T07:08:14;2.25;;;1.48;;
12906;SDS011;6521;50.498;8.474;2023-08-06T07:10:45;1.63;;;1.40;;
12906;SDS011;6521;50.498;8.474;2023-08-06T07:13:19;3.28;;;1.58;;
12906;SDS011;6521;50.498;8.474;2023-08-06T07:15:51;2.90;;;1.15;;
12906;SDS011;6521;50.498;8.474;2023-08-06T07:18:22;0.80;;;0.80;;
12906;SDS011;6521;50.498;8.474;2023-08-06T07:20:54;1.08;;;1.00;;
12906;SDS011;6521;50.498;8.474;2023-08-06T07:23:25;3.40;;;1.20;;
12906;SDS011;6521;50.498;8.474;2023-08-06T07:25:56;1.35;;;1.25;;
12906;SDS011;6521;50.498;8.474;2023-08-06T07:28:28;1.17;;;1.10;;
12906;SDS011;6521;50.498;8.474;2023-08-06T07:30:59;1.13;;;1.00;;
12906;SDS011;6521;50.498;8.474;2023-08-06T07:33:32;1.25;;;1.00;;
12906;SDS011;6521;50.498;8.474;2023-08-06T07:36:11;2.08;;;1.10;;
12906;SDS011;6521;50.498;8.474;2023-08-06T07:38:44;10.63;;;1.60;;
12906;SDS011;6521;50.498;8.474;2023-08-06T07:41:15;1.52;;;1.15;;
12906;SDS011;6521;50.498;8.474;2023-08-06T07:43:49;1.33;;;0.80;;
12906;SDS011;6521;50.498;8.474;2023-08-06T07:46:23;0.60;;;0.60;;
12906;SDS011;6521;50.498;8.474;2023-08-06T07:48:55;0.60;;;0.60;;
12906;SDS011;6521;50.498;8.474;2023-08-06T07:51:27;2.00;;;0.80;;
12906;SDS011;6521;50.498;8.474;2023-08-06T07:53:59;0.63;;;0.63;;
12906;SDS011;6521;50.498;8.474;2023-08-06T07:56:30;0.98;;;0.98;;
12906;SDS011;6521;50.498;8.474;2023-08-06T07:59:01;1.13;;;0.88;;
12906;SDS011;6521;50.498;8.474;2023-08-06T08:01:32;0.80;;;0.75;;
12906;SDS011;6521;50.498;8.474;2023-08-06T08:04:02;1.27;;;0.80;;
12906;SDS011;6521;50.498;8.474;2023-08-06T08:06:42;0.77;;;0.70;;
12906;SDS011;6521;50.498;8.474;2023-08-06T08:09:13;1.17;;;0.60;;
12906;SDS011;6521;50.498;8.474;2023-08-06T08:11:44;0.63;;;0.63;;
12906;SDS011;6521;50.498;8.474;2023-08-06T08:14:15;0.60;;;0.60;;
12906;SDS011;6521;50.498;8.474;2023-08-06T08:16:46;0.50;;;0.50;;
12906;SDS011;6521;50.498;8.474;2023-08-06T08:19:16;0.60;;;0.60;;
12906;SDS011;6521;50.498;8.474;2023-08-06T08:21:49;0.70;;;0.70;;
12906;SDS011;6521;50.498;8.474;2023-08-06T08:24:20;0.60;;;0.60;;
12906;SDS011;6521;50.498;8.474;2023-08-06T08:26:54;0.73;;;0.70;;
12906;SDS011;6521;50.498;8.474;2023-08-06T08:29:25;1.75;;;0.60;;
12906;SDS011;6521;50.498;8.474;2023-08-06T08:31:56;0.80;;;0.80;;
12906;SDS011;6521;50.498;8.474;2023-08-06T08:34:29;0.98;;;0.93;;
12906;SDS011;6521;50.498;8.474;2023-08-06T08:37:00;1.38;;;1.13;;
12906;SDS011;6521;50.498;8.474;2023-08-06T08:39:33;0.73;;;0.60;;
12906;SDS011;6521;50.498;8.474;2023-08-06T08:42:05;0.70;;;0.70;;
12906;SDS011;6521;50.498;8.474;2023-08-06T08:44:37;1.38;;;0.85;;
12906;SDS011;6521;50.498;8.474;2023-08-06T08:47:12;1.58;;;0.77;;
12906;SDS011;6521;50.498;8.474;2023-08-06T08:49:43;3.97;;;1.05;;
12906;SDS011;6521;50.498;8.474;2023-08-06T08:52:17;0.90;;;0.90;;
12906;SDS011;6521;50.498;8.474;2023-08-06T08:54:48;0.93;;;0.82;;
12906;SDS011;6521;50.498;8.474;2023-08-06T08:57:22;1.95;;;0.77;;
12906;SDS011;6521;50.498;8.474;2023-08-06T08:59:53;0.90;;;0.90;;
12906;SDS011;6521;50.498;8.474;2023-08-06T09:02:26;5.28;;;1.00;;
12906;SDS011;6521;50.498;8.474;2023-08-06T09:05:00;4.85;;;0.90;;
12906;SDS011;6521;50.498;8.474;2023-08-06T09:07:42;1.10;;;0.70;;
12906;SDS011;6521;50.498;8.474;2023-08-06T09:10:18;0.82;;;0.70;;
12906;SDS011;6521;50.498;8.474;2023-08-06T09:12:56;0.93;;;0.60;;
12906;SDS011;6521;50.498;8.474;2023-08-06T09:15:28;0.63;;;0.63;;
12906;SDS011;6521;50.498;8.474;2023-08-06T09:17:59;1.00;;;0.90;;
12906;SDS011;6521;50.498;8.474;2023-08-06T09:20:38;0.82;;;0.80;;
12906;SDS011;6521;50.498;8.474;2023-08-06T09:23:14;1.13;;;1.08;;
12906;SDS011;6521;50.498;8.474;2023-08-06T09:25:44;0.82;;;0.82;;
12906;SDS011;6521;50.498;8.474;2023-08-06T09:28:15;1.65;;;0.88;;
12906;SDS011;6521;50.498;8.474;2023-08-06T09:30:47;1.00;;;0.90;;
12906;SDS011;6521;50.498;8.474;2023-08-06T09:33:18;1.83;;;0.93;;
12906;SDS011;6521;50.498;8.474;2023-08-06T09:35:49;0.77;;;0.70;;
12906;SDS011;6521;50.498;8.474;2023-08-06T09:38:22;0.95;;;0.93;;
12906;SDS011;6521;50.498;8.474;2023-08-06T09:40:53;1.80;;;0.85;;
12906;SDS011;6521;50.498;8.474;2023-08-06T09:43:23;2.60;;;0.80;;
12906;SDS011;6521;50.498;8.474;2023-08-06T09:45:54;1.00;;;0.80;;
12906;SDS011;6521;50.498;8.474;2023-08-06T09:48:25;3.83;;;0.98;;
12906;SDS011;6521;50.498;8.474;2023-08-06T09:50:56;0.80;;;0.70;;
12906;SDS011;6521;50.498;8.474;2023-08-06T09:53:27;1.20;;;0.80;;
12906;SDS011;6521;50.498;8.474;2023-08-06T09:55:59;0.75;;;0.75;;
12906;SDS011;6521;50.498;8.474;2023-08-06T09:58:30;0.82;;;0.70;;
12906;SDS011;6521;50.498;8.474;2023-08-06T10:01:03;1.10;;;0.70;;
12906;SDS011;6521;50.498;8.474;2023-08-06T10:03:34;0.80;;;0.80;;
12906;SDS011;6521;50.498;8.474;2023-08-06T10:06:06;4.22;;;1.00;;
12906;SDS011;6521;50.498;8.474;2023-08-06T10:08:39;0.75;;;0.75;;
12906;SDS011;6521;50.498;8.474;2023-08-06T10:11:11;1.48;;;0.88;;
12906;SDS011;6521;50.498;8.474;2023-08-06T10:13:44;2.05;;;0.93;;
12906;SDS011;6521;50.498;8.474;2023-08-06T10:16:15;0.70;;;0.70;;
12906;SDS011;6521;50.498;8.474;2023-08-06T10:18:46;5.63;;;0.90;;
12906;SDS011;6521;50.498;8.474;2023-08-06T10:21:19;1.00;;;0.90;;
12906;SDS011;6521;50.498;8.474;2023-08-06T10:23:54;0.85;;;0.73;;
12906;SDS011;6521;50.498;8.474;2023-08-06T10:26:27;2.97;;;0.73;;
12906;SDS011;6521;50.498;8.474;2023-08-06T10:28:58;0.70;;;0.68;;
12906;SDS011;6521;50.498;8.474;2023-08-06T10:37:35;1.13;;;0.90;;
12906;SDS011;6521;50.498;8.474;2023-08-06T10:40:06;0.70;;;0.70;;
12906;SDS011;6521;50.498;8.474;2023-08-06T10:42:38;0.73;;;0.70;;
12906;SDS011;6521;50.498;8.474;2023-08-06T10:45:11;2.05;;;0.90;;
12906;SDS011;6521;50.498;8.474;2023-08-06T10:47:44;2.88;;;0.70;;
12906;SDS011;6521;50.498;8.474;2023-08-06T10:50:16;1.23;;;0.80;;
12906;SDS011;6521;50.498;8.474;2023-08-06T10:52:49;0.68;;;0.68;;
12906;SDS011;6521;50.498;8.474;2023-08-06T10:57:59;1.38;;;0.90;;
12906;SDS011;6521;50.498;8.474;2023-08-06T11:00:30;1.33;;;1.20;;
12906;SDS011;6521;50.498;8.474;2023-08-06T11:03:01;2.78;;;1.05;;
12906;SDS011;6521;50.498;8.474;2023-08-06T11:05:34;7.40;;;1.42;;
12906;SDS011;6521;50.498;8.474;2023-08-06T11:08:05;6.50;;;1.70;;
12906;SDS011;6521;50.498;8.474;2023-08-06T11:10:36;1.00;;;0.88;;
12906;SDS011;6521;50.498;8.474;2023-08-06T11:13:07;1.63;;;0.73;;
12906;SDS011;6521;50.498;8.474;2023-08-06T11:15:39;2.33;;;0.93;;
12906;SDS011;6521;50.498;8.474;2023-08-06T11:18:10;0.82;;;0.82;;
12906;SDS011;6521;50.498;8.474;2023-08-06T11:20:40;1.38;;;1.10;;
12906;SDS011;6521;50.498;8.474;2023-08-06T11:23:11;0.73;;;0.73;;
12906;SDS011;6521;50.498;8.474;2023-08-06T11:25:45;1.17;;;1.08;;
12906;SDS011;6521;50.498;8.474;2023-08-06T11:28:16;2.92;;;0.80;;
12906;SDS011;6521;50.498;8.474;2023-08-06T11:30:52;0.73;;;0.73;;
12906;SDS011;6521;50.498;8.474;2023-08-06T11:33:23;0.90;;;0.90;;
12906;SDS011;6521;50.498;8.474;2023-08-06T11:35:58;2.15;;;0.93;;
12906;SDS011;6521;50.498;8.474;2023-08-06T11:38:30;0.70;;;0.70;;
12906;SDS011;6521;50.498;8.474;2023-08-06T11:41:01;1.23;;;1.10;;
12906;SDS011;6521;50.498;8.474;2023-08-06T11:43:31;1.10;;;0.90;;
12906;SDS011;6521;50.498;8.474;2023-08-06T11:46:03;1.95;;;0.90;;
12906;SDS011;6521;50.498;8.474;2023-08-06T11:48:50;0.80;;;0.80;;
12906;SDS011;6521;50.498;8.474;2023-08-06T11:51:27;0.50;;;0.50;;
12906;SDS011;6521;50.498;8.474;2023-08-06T11:53:58;0.40;;;0.40;;
12906;SDS011;6521;50.498;8.474;2023-08-06T11:56:29;2.25;;;0.95;;
12906;SDS011;6521;50.498;8.474;2023-08-06T11:58:59;0.65;;;0.65;;
12906;SDS011;6521;50.498;8.474;2023-08-06T12:01:31;4.20;;;0.73;;
12906;SDS011;6521;50.498;8.474;2023-08-06T12:04:04;1.65;;;0.80;;
12906;SDS011;6521;50.498;8.474;2023-08-06T12:06:41;14.02;;;0.90;;
12906;SDS011;6521;50.498;8.474;2023-08-06T12:09:13;1.25;;;0.47;;
12906;SDS011;6521;50.498;8.474;2023-08-06T12:11:46;0.40;;;0.40;;
12906;SDS011;6521;50.498;8.474;2023-08-06T12:14:17;0.60;;;0.60;;
12906;SDS011;6521;50.498;8.474;2023-08-06T12:16:48;0.50;;;0.50;;
12906;SDS011;6521;50.498;8.474;2023-08-06T12:19:21;0.65;;;0.55;;
12906;SDS011;6521;50.498;8.474;2023-08-06T12:21:54;0.88;;;0.70;;
12906;SDS011;6521;50.498;8.474;2023-08-06T12:24:25;3.80;;;0.70;;
12906;SDS011;6521;50.498;8.474;2023-08-06T12:26:56;2.92;;;0.85;;
12906;SDS011;6521;50.498;8.474;2023-08-06T12:29:28;2.53;;;0.70;;
12906;SDS011;6521;50.498;8.474;2023-08-06T12:31:58;8.73;;;0.90;;
12906;SDS011;6521;50.498;8.474;2023-08-06T12:34:29;5.68;;;1.00;;
12906;SDS011;6521;50.498;8.474;2023-08-06T12:37:01;1.13;;;0.70;;
12906;SDS011;6521;50.498;8.474;2023-08-06T12:39:33;11.35;;;1.67;;
12906;SDS011;6521;50.498;8.474;2023-08-06T12:42:05;1.38;;;1.13;;
12906;SDS011;6521;50.498;8.474;2023-08-06T12:44:36;0.80;;;0.80;;
12906;SDS011;6521;50.498;8.474;2023-08-06T12:47:07;0.65;;;0.65;;
12906;SDS011;6521;50.498;8.474;2023-08-06T12:49:38;0.45;;;0.43;;
12906;SDS011;6521;50.498;8.474;2023-08-06T12:52:09;2.85;;;0.90;;
12906;SDS011;6521;50.498;8.474;2023-08-06T12:54:40;3.58;;;1.15;;
12906;SDS011;6521;50.498;8.474;2023-08-06T12:57:10;2.60;;;1.27;;
12906;SDS011;6521;50.498;8.474;2023-08-06T12:59:41;2.45;;;1.20;;
12906;SDS011;6521;50.498;8.474;2023-08-06T13:02:12;2.25;;;1.17;;
12906;SDS011;6521;50.498;8.474;2023-08-06T13:04:43;1.27;;;1.17;;
12906;SDS011;6521;50.498;8.474;2023-08-06T13:07:16;1.45;;;1.20;;
12906;SDS011;6521;50.498;8.474;2023-08-06T13:09:47;2.03;;;1.17;;
12906;SDS011;6521;50.498;8.474;2023-08-06T13:12:18;1.13;;;1.10;;
12906;SDS011;6521;50.498;8.474;2023-08-06T13:14:50;2.00;;;1.75;;
12906;SDS011;6521;50.498;8.474;2023-08-06T13:17:23;1.10;;;1.10;;
12906;SDS011;6521;50.498;8.474;2023-08-06T13:19:54;1.50;;;0.88;;
12906;SDS011;6521;50.498;8.474;2023-08-06T13:22:27;1.10;;;1.00;;
12906;SDS011;6521;50.498;8.474;2023-08-06T13:24:58;1.85;;;0.95;;
12906;SDS011;6521;50.498;8.474;2023-08-06T13:27:29;2.90;;;1.73;;
12906;SDS011;6521;50.498;8.474;2023-08-06T13:29:59;2.05;;;1.10;;
12906;SDS011;6521;50.498;8.474;2023-08-06T13:32:30;2.58;;;1.30;;
12906;SDS011;6521;50.498;8.474;2023-08-06T13:35:03;1.38;;;0.93;;
12906;SDS011;6521;50.498;8.474;2023-08-06T13:37:35;2.78;;;1.10;;
12906;SDS011;6521;50.498;8.474;2023-08-06T13:40:07;1.35;;;1.00;;
12906;SDS011;6521;50.498;8.474;2023-08-06T13:42:39;1.65;;;1.00;;
12906;SDS011;6521;50.498;8.474;2023-08-06T13:45:10;1.67;;;0.93;;
12906;SDS011;6521;50.498;8.474;2023-08-06T13:47:41;1.65;;;1.15;;
12906;SDS011;6521;50.498;8.474;2023-08-06T13:50:12;19.42;;;1.23;;
12906;SDS011;6521;50.498;8.474;2023-08-06T13:52:44;4.10;;;1.08;;
12906;SDS011;6521;50.498;8.474;2023-08-06T13:55:15;1.55;;;1.00;;
12906;SDS011;6521;50.498;8.474;2023-08-06T13:57:46;1.02;;;1.00;;
12906;SDS011;6521;50.498;8.474;2023-08-06T14:00:17;14.85;;;2.33;;
12906;SDS011;6521;50.498;8.474;2023-08-06T14:02:50;4.30;;;1.40;;
12906;SDS011;6521;50.498;8.474;2023-08-06T14:05:22;0.80;;;0.80;;
12906;SDS011;6521;50.498;8.474;2023-08-06T14:07:53;2.80;;;1.30;;
12906;SDS011;6521;50.498;8.474;2023-08-06T14:10:24;1.55;;;1.10;;
12906;SDS011;6521;50.498;8.474;2023-08-06T14:13:03;1.77;;;1.05;;
12906;SDS011;6521;50.498;8.474;2023-08-06T14:15:35;6.35;;;1.30;;
12906;SDS011;6521;50.498;8.474;2023-08-06T14:18:06;6.95;;;1.30;;
12906;SDS011;6521;50.498;8.474;2023-08-06T14:20:38;1.27;;;1.17;;
12906;SDS011;6521;50.498;8.474;2023-08-06T14:23:09;1.08;;;0.90;;
12906;SDS011;6521;50.498;8.474;2023-08-06T14:25:40;1.38;;;1.00;;
12906;SDS011;6521;50.498;8.474;2023-08-06T14:28:11;2.50;;;1.10;;
12906;SDS011;6521;50.498;8.474;2023-08-06T14:30:42;0.85;;;0.82;;
12906;SDS011;6521;50.498;8.474;2023-08-06T14:33:13;2.72;;;0.95;;
12906;SDS011;6521;50.498;8.474;2023-08-06T14:35:44;5.75;;;1.20;;
12906;SDS011;6521;50.498;8.474;2023-08-06T14:38:15;1.02;;;0.93;;
12906;SDS011;6521;50.498;8.474;2023-08-06T14:40:46;1.58;;;0.75;;
12906;SDS011;6521;50.498;8.474;2023-08-06T14:43:17;1.95;;;0.90;;
12906;SDS011;6521;50.498;8.474;2023-08-06T14:45:47;1.60;;;1.15;;
12906;SDS011;6521;50.498;8.474;2023-08-06T14:48:18;1.70;;;1.00;;
12906;SDS011;6521;50.498;8.474;2023-08-06T14:50:49;1.52;;;0.85;;
12906;SDS011;6521;50.498;8.474;2023-08-06T14:53:20;1.60;;;0.88;;
12906;SDS011;6521;50.498;8.474;2023-08-06T14:55:52;0.90;;;0.77;;
12906;SDS011;6521;50.498;8.474;2023-08-06T14:58:24;2.28;;;0.88;;
12906;SDS011;6521;50.498;8.474;2023-08-06T15:00:56;3.20;;;1.00;;
12906;SDS011;6521;50.498;8.474;2023-08-06T15:03:27;1.42;;;0.65;;
12906;SDS011;6521;50.498;8.474;2023-08-06T15:05:59;2.03;;;0.90;;
12906;SDS011;6521;50.498;8.474;2023-08-06T15:08:32;5.38;;;1.23;;
12906;SDS011;6521;50.498;8.474;2023-08-06T15:11:03;1.58;;;0.90;;
12906;SDS011;6521;50.498;8.474;2023-08-06T15:13:35;1.15;;;0.70;;
12906;SDS011;6521;50.498;8.474;2023-08-06T15:16:06;3.90;;;1.00;;
12906;SDS011;6521;50.498;8.474;2023-08-06T15:18:40;0.93;;;0.93;;
12906;SDS011;6521;50.498;8.474;2023-08-06T15:21:13;1.35;;;0.98;;
12906;SDS011;6521;50.498;8.474;2023-08-06T15:23:45;0.75;;;0.70;;
12906;SDS011;6521;50.498;8.474;2023-08-06T15:26:16;1.77;;;0.93;;
12906;SDS011;6521;50.498;8.474;2023-08-06T15:28:47;7.65;;;0.90;;
12906;SDS011;6521;50.498;8.474;2023-08-06T15:31:20;0.93;;;0.80;;
12906;SDS011;6521;50.498;8.474;2023-08-06T15:33:54;2.15;;;0.60;;
12906;SDS011;6521;50.498;8.474;2023-08-06T15:36:25;0.75;;;0.75;;
12906;SDS011;6521;50.498;8.474;2023-08-06T15:38:56;1.08;;;1.02;;
12906;SDS011;6521;50.498;8.474;2023-08-06T15:41:27;1.00;;;1.00;;
12906;SDS011;6521;50.498;8.474;2023-08-06T15:43:57;3.53;;;1.15;;
12906;SDS011;6521;50.498;8.474;2023-08-06T15:46:28;8.85;;;3.70;;